Home > Products > Valid Products > MTR

000
SAUS46 KPDT 211358
MTRMEH
METAR KMEH 211356Z AUTO 00000KT 10SM CLR 09/M03 A3003 RMK AO2 SLP164
T00941033





000
SAUS46 KPDT 211301 COR
MTRMEH
METAR KMEH 211256Z AUTO VRB03KT 10SM CLR 09/M03 A3004 RMK AO2 SLP168
T00891028





000
SAUS46 KPDT 211300 COR
MTRMEH
METAR KMEH 211256Z AUTO VRB03KT 10SM CLR 09/M03 A3004 RMK AO2 SLP168
T00891028





000
SAUS46 KPDT 211158
MTRMEH
METAR KMEH 211156Z AUTO VRB03KT 10SM CLR 09/M03 A3006 RMK AO2 SLP173
T00941033 10094 20022 58019





000
SAUS46 KPDT 211058
MTRMEH
METAR KMEH 211056Z AUTO 00000KT 10SM CLR 09/M03 A3009 RMK AO2 SLP182
T00891028





000
SAUS46 KPDT 210957
MTRMEH
METAR KMEH 210956Z AUTO 00000KT 10SM CLR 08/M02 A3011 RMK AO2 SLP190
T00781022





000
SAUS46 KPDT 210858
MTRMEH
METAR KMEH 210856Z AUTO 00000KT 10SM CLR 05/M01 A3012 RMK AO2 SLP201
T00501011 58011





000
SAUS46 KPDT 210758
MTRMEH
METAR KMEH 210756Z AUTO 00000KT 10SM CLR 05/00 A3015 RMK AO2 SLP210
T00500000 401560000





000
SAUS46 KPDT 210657
MTRMEH
METAR KMEH 210656Z AUTO 00000KT 10SM CLR 03/00 A3016 RMK AO2 SLP220
T00280000





000
SAUS46 KPDT 210558
MTRMEH
METAR KMEH 210556Z AUTO 00000KT 10SM CLR 03/01 A3016 RMK AO2 SLP221
T00330011 10156 20028 58006





000
SAUS46 KPDT 210457
MTRMEH
METAR KMEH 210456Z AUTO 00000KT 10SM CLR 04/02 A3017 RMK AO2 SLP227
T00440017





000
SAUS46 KPDT 210357
MTRMEH
METAR KMEH 210356Z AUTO 00000KT 10SM CLR 06/03 A3018 RMK AO2 SLP230
T00610028





000
SAUS46 KPDT 210258
MTRMEH
METAR KMEH 210256Z AUTO 00000KT 10SM CLR 09/03 A3018 RMK AO2 SLP225
T00940028 58006





000
SAUS46 KPDT 210157
MTRMEH
METAR KMEH 210156Z AUTO 00000KT 10SM CLR 12/02 A3018 RMK AO2 SLP225
T01220022





000
SAUS46 KPDT 210057
MTRMEH
METAR KMEH 210056Z AUTO 00000KT 10SM CLR 13/02 A3020 RMK AO2 SLP232
T01330017





000
SAUS46 KPDT 202358
MTRMEH
METAR KMEH 202356Z AUTO 00000KT 10SM CLR 15/M02 A3020 RMK AO2 SLP230
T01501022 10156 20089 58007





000
SAUS46 KPDT 202257
MTRMEH
METAR KMEH 202256Z AUTO 00000KT 10SM CLR 15/M03 A3021 RMK AO2 SLP234
T01501028





000
SAUS46 KPDT 202158
MTRMEH
METAR KMEH 202156Z AUTO VRB03KT 10SM CLR 14/M02 A3022 RMK AO2 SLP237
T01441017





000
SAUS46 KPDT 202057
MTRMEH
METAR KMEH 202056Z AUTO VRB05KT 10SM CLR 13/M04 A3022 RMK AO2 SLP238
T01331039 56014





000
SAUS46 KPDT 201958
MTRMEH
METAR KMEH 201956Z AUTO 00000KT 10SM CLR 13/M06 A3023 RMK AO2 SLP241
T01281056





000
SAUS46 KPDT 201858
MTRMEH
METAR KMEH 201856Z AUTO 00000KT 10SM CLR 11/M03 A3025 RMK AO2 SLP250
T01061028





000
SAUS46 KPDT 201758
MTRMEH
METAR KMEH 201756Z AUTO VRB03KT 10SM CLR 09/M02 A3027 RMK AO2 SLP256
T00941017 10094 20011 58001





000
SAUS46 KPDT 201657
MTRMEH
METAR KMEH 201656Z AUTO 00000KT 10SM FEW032 07/M02 A3028 RMK AO2
SLP261 T00721017





000
SAUS46 KPDT 201612
MTRMEH
SPECI KMEH 201611Z AUTO 00000KT 10SM SCT029 06/M01 A3028 RMK AO2
T00611011





000
SAUS46 KPDT 201600
MTRMEH
METAR KMEH 201556Z AUTO 00000KT 10SM BKN029 06/M01 A3028 RMK AO2
SLP262 T00611011





000
SAUS46 KPDT 201458
MTRMEH
METAR KMEH 201456Z AUTO 00000KT 10SM OVC034 04/00 A3027 RMK AO2
SLP261 T00440000 53012





000
SAUS46 KPDT 201401
MTRMEH
METAR KMEH 201356Z AUTO 00000KT 10SM OVC032 02/01 A3026 RMK AO2
SLP257 T00220006





000
SAUS46 KPDT 201257
MTRMEH
METAR KMEH 201256Z AUTO 00000KT 10SM SCT026 OVC031 02/00 A3025 RMK
AO2 SLP253 T00170000





000
SAUS46 KPDT 201250
MTRMEH
SPECI KMEH 201249Z AUTO 00000KT 10SM SCT026 OVC031 02/00 A3024 RMK
AO2 T00170000





000
SAUS46 KPDT 201240
MTRMEH
SPECI KMEH 201238Z AUTO 00000KT 10SM OVC029 02/00 A3024 RMK AO2
T00170000





000
SAUS46 KPDT 201232
MTRMEH
SPECI KMEH 201231Z AUTO 00000KT 10SM OVC030 02/00 A3024 RMK AO2
T00170000





000
SAUS46 KPDT 201157
MTRMEH
METAR KMEH 201156Z AUTO 00000KT 10SM OVC027 01/M01 A3023 RMK AO2
SLP247 T00111006 10050 20000 51008





000
SAUS46 KPDT 201057
MTRMEH
METAR KMEH 201056Z AUTO 23003KT 10SM BKN025 00/M01 A3022 RMK AO2
SLP241 T00001011





000
SAUS46 KPDT 201050
MTRMEH
SPECI KMEH 201049Z AUTO 00000KT 10SM BKN025 00/M01 A3023 RMK AO2
T00001011





000
SAUS46 KPDT 201021
MTRMEH
SPECI KMEH 201020Z AUTO 00000KT 10SM FEW024 01/M01 A3022 RMK AO2
T00061011





000
SAUS46 KPDT 200958
MTRMEH
METAR KMEH 200956Z AUTO 00000KT 10SM BKN023 02/00 A3022 RMK AO2
SLP238 T00170000





000
SAUS46 KPDT 200857
MTRMEH
METAR KMEH 200856Z AUTO 00000KT 10SM OVC023 03/01 A3021 RMK AO2
SLP230 T00280006 53016





000
SAUS46 KPDT 200827
MTRMEH
SPECI KMEH 200823Z AUTO 00000KT 10SM BKN021 BKN034 03/01 A3019 RMK
AO2 T00280006





000
SAUS46 KPDT 200758
MTRMEH
METAR KMEH 200756Z AUTO 00000KT 10SM FEW024 03/01 A3018 RMK AO2
SLP218 T00280006 401831028





000
SAUS46 KPDT 200657
MTRMEH
METAR KMEH 200656Z AUTO 00000KT 10SM FEW034 04/01 A3017 RMK AO2
SLP212 T00390006





000
SAUS46 KPDT 200638
MTRMEH
SPECI KMEH 200637Z AUTO 00000KT 10SM SCT025 BKN034 BKN042 04/01
A3016 RMK AO2 T00390011





000
SAUS46 KPDT 200558
MTRMEH
METAR KMEH 200556Z AUTO VRB04KT 10SM BKN020 OVC025 05/01 A3015 RMK
AO2 SLP209 60000 T00500011 10111 20050 53016





000
SAUS46 KPDT 200457
MTRMEH
METAR KMEH 200456Z AUTO VRB03KT 10SM SCT023 OVC029 06/01 A3013 RMK
AO2 SLP203 T00560011





000
SAUS46 KPDT 200426
MTRMEH
SPECI KMEH 200423Z AUTO VRB03KT 10SM FEW022 OVC031 06/01 A3011 RMK
AO2 T00610011





000
SAUS46 KPDT 200419
MTRMEH
SPECI KMEH 200415Z AUTO VRB03KT 10SM FEW022 BKN029 OVC039 06/01
A3011 RMK AO2 T00610011





000
SAUS46 KPDT 200358
MTRMEH
METAR KMEH 200356Z AUTO 10SM FEW024 BKN034 OVC050 07/01 A3010 RMK
AO2 SLP195 T00670011





000
SAUS46 KPDT 200257
MTRMEH
METAR KMEH 200256Z AUTO 00000KT 10SM FEW055 07/02 A3006 RMK AO2
SLP182 60000 T00720017 51023





000
SAUS46 KPDT 200158
MTRMEH
METAR KMEH 200156Z AUTO 10SM FEW036 BKN047 OVC080 08/02 A3003 RMK
AO2 RAB28E56 SLP181 P0000 T00830022





000
SAUS46 KPDT 200101
MTRMEH
METAR KMEH 200056Z AUTO VRB04KT 10SM SCT050 BKN120 09/02 A3002 RMK
AO2 SLP178 T00890017





000
SAUS46 KPDT 192357
MTRMEH
METAR KMEH 192356Z AUTO VRB05G16KT 10SM FEW040 SCT049 BKN065 11/01
A2998 RMK AO2 SLP164 T01110011 10183 20111 53026





000
SAUS46 KPDT 192258
MTRMEH
METAR KMEH 192256Z AUTO VRB04KT 10SM BKN110 14/00 A2991 RMK AO2
SLP135 T01390000





000
SAUS46 KPDT 192158
MTRMEH
METAR KMEH 192156Z AUTO VRB04KT 10SM OVC100 13/M02 A2990 RMK AO2
SLP131 T01331022





000
SAUS46 KPDT 192058
MTRMEH
METAR KMEH 192056Z AUTO VRB05KT 10SM BKN100 OVC110 14/M01 A2989 RMK
AO2 SLP129 T01441006 53009





000
SAUS46 KPDT 191958
MTRMEH
METAR KMEH 191956Z AUTO VRB05KT 10SM BKN100 17/M03 A2985 RMK AO2
SLP109 T01721028





000
SAUS46 KPDT 191857
MTRMEH
METAR KMEH 191856Z AUTO VRB04KT 10SM OVC110 17/M02 A2985 RMK AO2
SLP110 T01671022





000
SAUS46 KPDT 191757
MTRMEH
METAR KMEH 191756Z AUTO 00000KT 10SM CLR 15/M03 A2986 RMK AO2 SLP115
I6000 T01501028 10150 21028 56001





000
SAUS46 KPDT 191658
MTRMEH
METAR KMEH 191656Z AUTO 00000KT 10SM CLR 12/M02 A2986 RMK AO2 SLP119
T01221022





000
SAUS46 KPDT 191559
MTRMEH
METAR KMEH 191556Z AUTO 00000KT 10SM SCT100 10/M03 A2987 RMK AO2
SLP120 T01001028





000
SAUS46 KPDT 191457
MTRMEH
METAR KMEH 191456Z AUTO 00000KT 10SM CLR 07/M03 A2987 RMK AO2 SLP121
I3000 T00671028 57007





000
SAUS46 KPDT 191358
MTRMEH
METAR KMEH 191356Z AUTO 00000KT 10SM CLR 01/M03 A2988 RMK AO2 SLP130
T00111028





000
SAUS46 KPDT 191258
MTRMEH
METAR KMEH 191256Z AUTO 00000KT 10SM CLR M01/M03 A2988 RMK AO2
SLP130 I1000 T10111033





000
SAUS46 KPDT 191157
MTRMEH
METAR KMEH 191156Z AUTO 00000KT 10SM CLR M03/M04 A2989 RMK AO2
SLP136 I1000 I6000 T10281044 11011 21028 58008





000
SAUS46 KPDT 191058
MTRMEH
METAR KMEH 191056Z AUTO 00000KT 10SM CLR M03/M04 A2991 RMK AO2
SLP140 I1000 T10281039





000
SAUS46 KPDT 190957
MTRMEH
METAR KMEH 190956Z AUTO 00000KT 10SM CLR M02/M04 A2991 RMK AO2
SLP141 I1000 T10221039





000
SAUS46 KPDT 190859
MTRMEH
METAR KMEH 190856Z AUTO 00000KT 10SM CLR M02/M04 A2992 RMK AO2
SLP146 T10221039 56012





000
SAUS46 KPDT 190757
MTRMEH
METAR KMEH 190756Z AUTO 00000KT 10SM CLR M02/M03 A2993 RMK AO2
SLP149 T10221033 401061022





000
SAUS46 KPDT 190658
MTRMEH
METAR KMEH 190656Z AUTO 00000KT 10SM CLR M02/M03 A2995 RMK AO2
SLP156 T10171033





000
SAUS46 KPDT 190558
MTRMEH
METAR KMEH 190556Z AUTO 00000KT 10SM CLR M01/M03 A2996 RMK AO2
SLP161 T10111028 10100 21011 58006





000
SAUS46 KPDT 190457
MTRMEH
METAR KMEH 190456Z AUTO 00000KT 10SM CLR 00/M02 A2998 RMK AO2 SLP168
T00001017





000
SAUS46 KPDT 190359
MTRMEH
METAR KMEH 190356Z AUTO 00000KT 10SM CLR 02/M01 A2999 RMK AO2 SLP171
T00171011





000
SAUS46 KPDT 190258
MTRMEH
METAR KMEH 190256Z AUTO 00000KT 10SM CLR 04/M01 A2998 RMK AO2 SLP166
T00391006 58010





000
SAUS46 KPDT 190158
MTRMEH
METAR KMEH 190156Z AUTO 00000KT 10SM CLR 07/M02 A2999 RMK AO2 SLP170
T00671022





000
SAUS46 KPDT 190057
MTRMEH
METAR KMEH 190056Z AUTO VRB03KT 10SM CLR 09/M03 A3000 RMK AO2 SLP167
T00941028





000
SAUS46 KPDT 182358
MTRMEH
METAR KMEH 182356Z AUTO VRB04KT 10SM CLR 09/M04 A3001 RMK AO2 SLP173
T00941039 10106 20061 56008





000
SAUS46 KPDT 182257
MTRMEH
METAR KMEH 182256Z AUTO VRB03KT 10SM CLR 10/M04 A3002 RMK AO2 SLP172
T01001044





000
SAUS46 KPDT 182158
MTRMEH
METAR KMEH 182156Z AUTO VRB04KT 10SM CLR 09/M05 A3003 RMK AO2 SLP176
T00941050





000
SAUS46 KPDT 182058
MTRMEH
METAR KMEH 182056Z AUTO VRB04KT 10SM CLR 09/M04 A3004 RMK AO2 SLP178
T00891044 53005





000
SAUS46 KPDT 181957
MTRMEH
METAR KMEH 181956Z AUTO VRB04KT 10SM CLR 08/M04 A3003 RMK AO2 SLP173
T00831044





000
SAUS46 KPDT 181858
MTRMEH
METAR KMEH 181856Z AUTO VRB06G15KT 10SM CLR 07/M04 A3003 RMK AO2
SLP176 T00721039





000
SAUS46 KPDT 181758
MTRMEH
METAR KMEH 181756Z AUTO VRB04KT 10SM CLR 06/M03 A3002 RMK AO2 SLP175
T00611033 10061 20006 51009





000
SAUS46 KPDT 181658
MTRMEH
METAR KMEH 181656Z AUTO 27007G19KT 220V010 10SM CLR 04/M04 A3001 RMK
AO2 SLP173 T00441039





000
SAUS46 KPDT 181557
MTRMEH
METAR KMEH 181556Z AUTO 25007KT 210V290 10SM FEW025 03/M03 A3001 RMK
AO2 SLP174 T00281033





000
SAUS46 KPDT 181458
MTRMEH
METAR KMEH 181456Z AUTO 10SM CLR 02/M02 A2999 RMK AO2 SLP169
T00221022 53008





    US Dept of Commerce
    National Oceanic and Atmospheric Administration
    National Weather Service
    1325 East West Highway
    Silver Spring, MD 20910
    Page Author: NWS Internet Services Team
Disclaimer
Information Quality
Credits
Glossary
Privacy Policy
Freedom of Information Act (FOIA)
About Us
Career Opportunities